createdAt,value
2018-03-31T00:02:18.935Z,97823.44
2018-03-31T00:04:46.946Z,97833.58
2018-03-31T00:07:15.636Z,97854.61
2018-03-31T00:09:43.578Z,97827.66
2018-03-31T00:12:11.466Z,97832.31
2018-03-31T00:14:39.348Z,97846.54
2018-03-31T00:17:07.223Z,97817.20
2018-03-31T00:19:35.615Z,97803.94
2018-03-31T00:22:04.503Z,97807.72
2018-03-31T00:24:32.991Z,97795.73
2018-03-31T00:27:01.378Z,97773.94
2018-03-31T00:29:29.840Z,97769.60
2018-03-31T00:31:58.560Z,97771.19
2018-03-31T00:34:27.253Z,97772.92
2018-03-31T00:36:55.284Z,97771.50
2018-03-31T00:39:23.165Z,97772.54
2018-03-31T00:41:51.011Z,97775.68
2018-03-31T00:44:19.531Z,97751.57
2018-03-31T00:46:48.271Z,97758.75
2018-03-31T00:49:16.265Z,97762.73
2018-03-31T00:51:44.349Z,97758.91
2018-03-31T00:54:12.060Z,97749.64
2018-03-31T00:56:39.948Z,97731.58
2018-03-31T00:59:07.662Z,97721.36
2018-03-31T01:01:35.602Z,97706.73
2018-03-31T01:04:03.696Z,97692.91
2018-03-31T01:06:32.181Z,97701.56
2018-03-31T01:09:00.680Z,97700.34
2018-03-31T01:11:28.877Z,97720.94
2018-03-31T01:13:57.347Z,97737.86
2018-03-31T01:16:25.283Z,97757.89
2018-03-31T01:18:53.297Z,97782.78
2018-03-31T01:21:21.252Z,97770.56
2018-03-31T01:23:48.980Z,97767.42
2018-03-31T01:26:16.734Z,97756.40
2018-03-31T01:28:45.404Z,97759.17
2018-03-31T01:31:13.128Z,97758.91
2018-03-31T01:33:40.942Z,97760.09
2018-03-31T01:36:08.681Z,97742.98
2018-03-31T01:38:37.237Z,97744.39
2018-03-31T01:41:05.216Z,97724.85
2018-03-31T01:43:33.106Z,97731.93
2018-03-31T01:46:01.190Z,97699.36
2018-03-31T01:48:29.552Z,97693.14
2018-03-31T01:50:58.421Z,97687.50
2018-03-31T01:53:26.734Z,97669.80
2018-03-31T01:55:54.547Z,97659.75
2018-03-31T01:58:22.594Z,97636.45
2018-03-31T02:00:50.697Z,97627.82
2018-03-31T02:03:18.755Z,97628.66
2018-03-31T02:05:46.618Z,97629.45
2018-03-31T02:08:15.308Z,97627.92
2018-03-31T02:10:43.189Z,97622.94
2018-03-31T02:13:11.113Z,97609.05
2018-03-31T02:15:39.868Z,97615.52
2018-03-31T02:18:07.796Z,97604.48
2018-03-31T02:20:35.755Z,97603.44
2018-03-31T02:23:03.789Z,97606.09
2018-03-31T02:25:32.533Z,97597.47
2018-03-31T02:28:00.744Z,97596.63
2018-03-31T02:30:29.129Z,97594.20
2018-03-31T02:32:58.317Z,97603.02
2018-03-31T02:35:26.561Z,97615.89
2018-03-31T02:37:54.362Z,97608.45
2018-03-31T02:40:22.146Z,97599.66
2018-03-31T02:42:50.127Z,97599.92
2018-03-31T02:45:18.093Z,97553.33
2018-03-31T02:47:46.202Z,97564.23
2018-03-31T02:50:14.399Z,97543.80
2018-03-31T02:52:42.299Z,97532.67
2018-03-31T02:55:11.226Z,97534.45
2018-03-31T02:57:39.563Z,97532.41
2018-03-31T03:00:08.321Z,97517.61
2018-03-31T03:02:36.311Z,97509.91
2018-03-31T03:05:04.204Z,97485.05
2018-03-31T03:07:32.197Z,97491.59
2018-03-31T03:10:00.345Z,97503.63
2018-03-31T03:12:29.198Z,97495.94
2018-03-31T03:14:58.092Z,97473.70
2018-03-31T03:17:25.779Z,97461.31
2018-03-31T03:19:53.482Z,97451.92
2018-03-31T03:22:21.300Z,97476.83
2018-03-31T03:24:49.090Z,97516.13
2018-03-31T03:27:16.947Z,97553.58
2018-03-31T03:29:44.709Z,97537.63
2018-03-31T03:32:12.453Z,97526.88
2018-03-31T03:34:40.285Z,97522.72
2018-03-31T03:37:08.112Z,97534.52
2018-03-31T03:39:35.864Z,97533.69
2018-03-31T03:42:03.626Z,97558.08
2018-03-31T03:44:32.139Z,97534.52
2018-03-31T03:46:59.886Z,97522.86
2018-03-31T03:49:27.726Z,97514.47
2018-03-31T03:51:55.434Z,97517.21
2018-03-31T03:54:23.417Z,97500.97
2018-03-31T03:56:51.514Z,97490.36
2018-03-31T03:59:20.399Z,97497.88
2018-03-31T04:01:49.429Z,97520.09
2018-03-31T04:04:17.265Z,97512.14
2018-03-31T04:06:45.330Z,97481.09
2018-03-31T04:09:13.051Z,97495.47
2018-03-31T04:11:40.868Z,97469.25
2018-03-31T04:14:08.707Z,97471.32
2018-03-31T04:16:36.466Z,97452.92
2018-03-31T04:19:04.144Z,97455.37
2018-03-31T04:21:31.909Z,97449.27
2018-03-31T04:23:59.703Z,97444.58
2018-03-31T04:26:27.475Z,97450.31
2018-03-31T04:28:56.053Z,97457.02
2018-03-31T04:31:23.912Z,97463.21
2018-03-31T04:33:51.768Z,97461.39
2018-03-31T04:36:19.541Z,97462.14
2018-03-31T04:38:47.337Z,97463.31
2018-03-31T04:41:16.114Z,97456.47
2018-03-31T04:43:45.981Z,97467.89
2018-03-31T04:46:14.510Z,97434.56
2018-03-31T04:48:42.516Z,97423.27
2018-03-31T04:51:10.449Z,97433.28
2018-03-31T04:53:38.486Z,97421.82
2018-03-31T04:56:06.386Z,97413.80
2018-03-31T04:58:35.087Z,97422.08
2018-03-31T05:01:02.998Z,97415.14
2018-03-31T05:03:30.932Z,97407.20
2018-03-31T05:05:59.671Z,97399.47
2018-03-31T05:08:27.743Z,97409.47
2018-03-31T05:10:55.479Z,97418.34
2018-03-31T05:13:23.413Z,97403.33
2018-03-31T05:15:52.037Z,97412.07
2018-03-31T05:18:19.804Z,97414.77
2018-03-31T05:20:48.361Z,97405.97
2018-03-31T05:23:16.760Z,97411.81
2018-03-31T05:25:44.936Z,97385.09
2018-03-31T05:28:13.222Z,97380.77
2018-03-31T05:30:40.923Z,97405.45
2018-03-31T05:33:08.764Z,97387.59
2018-03-31T05:35:37.383Z,97390.37
2018-03-31T05:38:05.966Z,97396.41
2018-03-31T05:40:33.786Z,97397.55
2018-03-31T05:43:01.596Z,97395.17
2018-03-31T05:45:29.438Z,97388.51
2018-03-31T05:47:57.946Z,97374.45
2018-03-31T05:50:26.504Z,97377.05
2018-03-31T05:52:54.500Z,97358.59
2018-03-31T05:55:22.335Z,97387.47
2018-03-31T05:57:50.160Z,97394.25
2018-03-31T06:00:17.900Z,97398.20
2018-03-31T06:02:46.467Z,97377.02
2018-03-31T06:05:14.981Z,97381.22
2018-03-31T06:07:43.997Z,97361.06
2018-03-31T06:10:12.324Z,97360.62
2018-03-31T06:12:40.850Z,97384.63
2018-03-31T06:15:08.581Z,97356.81
2018-03-31T06:17:36.326Z,97370.02
2018-03-31T06:20:04.230Z,97357.52
2018-03-31T06:22:32.086Z,97364.13
2018-03-31T06:25:00.598Z,97359.05
2018-03-31T06:27:31.246Z,97348.70
2018-03-31T06:29:59.850Z,97356.80
2018-03-31T06:32:43.965Z,97365.84
2018-03-31T06:35:11.743Z,97386.02
2018-03-31T06:37:39.619Z,97384.12
2018-03-31T06:40:07.515Z,97376.59
2018-03-31T06:42:35.327Z,97362.03
2018-03-31T06:45:03.181Z,97358.69
2018-03-31T06:47:31.092Z,97368.17
2018-03-31T06:49:59.046Z,97367.05
2018-03-31T06:52:26.911Z,97382.23
2018-03-31T06:54:55.493Z,97368.47
2018-03-31T06:57:24.144Z,97397.58
2018-03-31T06:59:52.042Z,97364.55
2018-03-31T07:02:19.996Z,97374.13
2018-03-31T07:04:47.826Z,97364.37
2018-03-31T07:07:15.576Z,97365.75
2018-03-31T07:09:44.227Z,97358.88
2018-03-31T07:12:12.410Z,97357.87
2018-03-31T07:14:40.994Z,97354.58
2018-03-31T07:17:09.365Z,97367.53
2018-03-31T07:19:37.337Z,97371.46
2018-03-31T07:22:05.171Z,97357.63
2018-03-31T07:24:33.043Z,97357.79
2018-03-31T07:27:01.793Z,97362.18
2018-03-31T07:29:29.601Z,97370.66
2018-03-31T07:31:58.271Z,97348.65
2018-03-31T07:34:26.202Z,97338.41
2018-03-31T07:36:54.162Z,97339.88
2018-03-31T07:39:22.017Z,97338.14
2018-03-31T07:41:50.634Z,97379.13
2018-03-31T07:44:18.439Z,97350.67
2018-03-31T07:46:46.243Z,97365.34
2018-03-31T07:49:14.082Z,97358.91
2018-03-31T07:51:42.003Z,97363.58
2018-03-31T07:54:10.100Z,97347.45
2018-03-31T07:56:38.519Z,97362.38
2018-03-31T07:59:06.867Z,97338.42
2018-03-31T08:01:36.073Z,97351.39
2018-03-31T08:04:04.329Z,97335.98
2018-03-31T08:06:32.226Z,97348.84
2018-03-31T08:09:00.059Z,97362.80
2018-03-31T08:11:28.930Z,97355.92
2018-03-31T08:13:56.895Z,97357.06
2018-03-31T08:16:24.890Z,97346.88
2018-03-31T08:18:52.815Z,97340.80
2018-03-31T08:21:20.878Z,97344.98
2018-03-31T08:23:48.749Z,97345.19
2018-03-31T08:26:17.910Z,97349.69
2018-03-31T08:28:47.063Z,97347.54
2018-03-31T08:31:15.017Z,97357.58
2018-03-31T08:33:43.079Z,97365.91
2018-03-31T08:36:11.777Z,97343.52
2018-03-31T08:38:40.831Z,97344.36
2018-03-31T08:41:09.033Z,97340.55
2018-03-31T08:43:37.706Z,97342.28
2018-03-31T08:46:06.624Z,97340.30
2018-03-31T08:48:34.798Z,97339.77
2018-03-31T08:51:04.433Z,97321.52
2018-03-31T08:53:33.512Z,97354.82
2018-03-31T08:56:02.714Z,97359.95
2018-03-31T08:58:31.514Z,97331.29
2018-03-31T09:01:00.312Z,97342.47
2018-03-31T09:03:28.534Z,97344.72
2018-03-31T09:05:58.944Z,97320.77
2018-03-31T09:08:27.866Z,97340.64
2018-03-31T09:10:56.846Z,97340.32
2018-03-31T09:13:26.551Z,97335.95
2018-03-31T09:15:55.798Z,97370.10
2018-03-31T09:18:24.407Z,97345.67
2018-03-31T09:20:52.609Z,97333.41
2018-03-31T09:23:22.333Z,97337.73
2018-03-31T09:25:51.728Z,97354.59
2018-03-31T09:28:23.182Z,97333.86
2018-03-31T09:30:53.011Z,97347.87
2018-03-31T09:33:21.600Z,97342.61
2018-03-31T09:35:49.596Z,97356.82
2018-03-31T09:38:18.351Z,97343.27
2018-03-31T09:40:47.808Z,97332.33
2018-03-31T09:43:17.150Z,97345.77
2018-03-31T09:45:46.372Z,97340.05
2018-03-31T09:48:14.264Z,97346.20
2018-03-31T09:50:42.508Z,97346.28
2018-03-31T09:53:10.605Z,97334.89
2018-03-31T09:55:39.895Z,97338.95
2018-03-31T09:58:08.140Z,97333.30
2018-03-31T10:00:36.151Z,97327.77
2018-03-31T10:03:04.052Z,97321.81
2018-03-31T10:05:32.571Z,97322.59
2018-03-31T10:08:01.397Z,97308.33
2018-03-31T10:10:30.235Z,97290.30
2018-03-31T10:12:59.413Z,97328.13
2018-03-31T10:15:27.436Z,97320.55
2018-03-31T10:17:56.137Z,97321.92
2018-03-31T10:20:26.484Z,97313.70
2018-03-31T10:22:56.330Z,97324.64
2018-03-31T10:25:25.481Z,97322.61
2018-03-31T10:27:54.403Z,97312.44
2018-03-31T10:30:23.294Z,97312.70
2018-03-31T10:32:52.349Z,97307.52
2018-03-31T10:35:20.460Z,97316.75
2018-03-31T10:37:49.060Z,97309.61
2018-03-31T10:40:17.513Z,97287.89
2018-03-31T10:42:45.418Z,97284.28
2018-03-31T10:45:14.066Z,97277.94
2018-03-31T10:47:42.113Z,97276.70
2018-03-31T10:50:10.062Z,97273.50
2018-03-31T10:52:39.390Z,97271.80
2018-03-31T10:55:08.911Z,97263.50
2018-03-31T10:57:38.476Z,97261.02
2018-03-31T11:00:06.435Z,97280.50
2018-03-31T11:02:35.072Z,97265.41
2018-03-31T11:05:03.586Z,97256.38
2018-03-31T11:07:32.045Z,97251.81
2018-03-31T11:10:02.424Z,97259.28
2018-03-31T11:12:30.380Z,97233.38
2018-03-31T11:14:59.249Z,97228.02
2018-03-31T11:17:27.657Z,97217.59
2018-03-31T11:19:56.248Z,97226.16
2018-03-31T11:22:24.346Z,97230.53
2018-03-31T11:24:52.277Z,97235.72
2018-03-31T11:27:21.166Z,97206.88
2018-03-31T11:29:50.774Z,97235.80
2018-03-31T11:32:20.587Z,97238.21
2018-03-31T11:34:48.812Z,97222.53
2018-03-31T11:37:17.106Z,97219.14
2018-03-31T11:39:45.024Z,97202.86
2018-03-31T11:42:13.385Z,97221.38
2018-03-31T11:44:41.578Z,97207.17
2018-03-31T11:47:09.917Z,97187.42
2018-03-31T11:49:37.778Z,97215.21
2018-03-31T11:52:06.210Z,97226.30
2018-03-31T11:54:34.155Z,97197.63
2018-03-31T11:57:03.741Z,97220.37
2018-03-31T11:59:32.824Z,97205.88
2018-03-31T12:02:00.865Z,97175.50
2018-03-31T12:04:28.827Z,97193.73
2018-03-31T12:06:59.092Z,97203.05
2018-03-31T12:09:29.534Z,97190.86
2018-03-31T12:11:59.392Z,97187.73
2018-03-31T12:14:27.740Z,97201.80
2018-03-31T12:16:55.760Z,97184.09
2018-03-31T12:19:24.983Z,97191.56
2018-03-31T12:21:54.491Z,97203.41
2018-03-31T12:24:22.876Z,97182.84
2018-03-31T12:26:50.936Z,97201.21
2018-03-31T12:29:19.085Z,97185.06
2018-03-31T12:31:47.546Z,97210.86
2018-03-31T12:34:16.695Z,97186.52
2018-03-31T12:36:45.762Z,97181.80
2018-03-31T12:39:14.863Z,97188.63
2018-03-31T12:41:44.398Z,97203.37
2018-03-31T12:44:13.275Z,97196.45
2018-03-31T12:46:43.131Z,97191.92
2018-03-31T12:49:12.353Z,97183.61
2018-03-31T12:51:41.815Z,97194.84
2018-03-31T12:54:11.354Z,97187.70
2018-03-31T12:56:40.093Z,97188.41
2018-03-31T12:59:09.068Z,97181.94
2018-03-31T13:01:38.305Z,97199.19
2018-03-31T13:04:06.922Z,97224.95
2018-03-31T13:06:36.044Z,97213.25
2018-03-31T13:09:04.628Z,97200.77
2018-03-31T13:11:35.359Z,97206.19
2018-03-31T13:14:05.443Z,97184.00
2018-03-31T13:16:35.177Z,97186.02
2018-03-31T13:19:06.419Z,97194.07
2018-03-31T13:21:37.185Z,97184.41
2018-03-31T13:24:06.883Z,97169.98
2018-03-31T13:26:35.810Z,97174.17
2018-03-31T13:29:04.285Z,97181.33
2018-03-31T13:31:32.639Z,97204.77
2018-03-31T13:34:00.896Z,97168.43
2018-03-31T13:36:29.344Z,97175.63
2018-03-31T13:38:59.282Z,97173.18
2018-03-31T13:41:29.080Z,97164.89
2018-03-31T13:43:59.620Z,97184.97
2018-03-31T13:46:28.100Z,97146.30
2018-03-31T13:48:56.289Z,97155.77
2018-03-31T13:51:24.825Z,97155.05
2018-03-31T13:53:53.081Z,97152.96
2018-03-31T13:56:21.229Z,97151.04
2018-03-31T13:58:51.052Z,97143.02
2018-03-31T14:01:21.334Z,97138.48
2018-03-31T14:03:49.572Z,97133.02
2018-03-31T14:06:19.318Z,97120.42
2018-03-31T14:08:47.993Z,97127.49
2018-03-31T14:11:17.064Z,97124.69
2018-03-31T14:13:46.959Z,97141.78
2018-03-31T14:16:15.743Z,97113.01
2018-03-31T14:18:44.255Z,97110.01
2018-03-31T14:21:12.498Z,97109.47
2018-03-31T14:23:40.446Z,97132.47
2018-03-31T14:26:09.746Z,97104.66
2018-03-31T14:28:40.024Z,97089.56
2018-03-31T14:31:08.518Z,97089.73
2018-03-31T14:33:37.580Z,97085.59
2018-03-31T14:36:06.002Z,97096.43
2018-03-31T14:38:35.132Z,97078.75
2018-03-31T14:41:03.354Z,97082.09
2018-03-31T14:43:33.285Z,97064.20
2018-03-31T14:46:01.485Z,97113.97
2018-03-31T14:48:29.703Z,97070.49
2018-03-31T14:50:58.034Z,97067.03
2018-03-31T14:53:26.363Z,97054.85
2018-03-31T14:55:54.379Z,97047.18
2018-03-31T14:58:23.132Z,97049.66
2018-03-31T15:00:52.226Z,97052.98
2018-03-31T15:03:21.026Z,97063.48
2018-03-31T15:05:48.951Z,97058.87
2018-03-31T15:08:18.449Z,97051.69
2018-03-31T15:10:47.421Z,97049.47
2018-03-31T15:13:16.512Z,97056.43
2018-03-31T15:15:45.577Z,97053.78
2018-03-31T15:18:14.525Z,97054.34
2018-03-31T15:20:46.435Z,97058.38
2018-03-31T15:23:15.624Z,97065.02
2018-03-31T15:25:46.303Z,97069.75
2018-03-31T15:28:16.364Z,97050.87
2018-03-31T15:30:45.103Z,97063.42
2018-03-31T15:33:15.383Z,97069.72
2018-03-31T15:35:46.005Z,97060.56
2018-03-31T15:38:14.738Z,97056.27
2018-03-31T15:40:44.239Z,97043.95
2018-03-31T15:43:14.604Z,97070.17
2018-03-31T15:45:43.826Z,97060.00
2018-03-31T15:48:12.592Z,97055.66
2018-03-31T15:50:42.395Z,97062.96
2018-03-31T15:53:10.908Z,97072.13
2018-03-31T15:55:39.180Z,97085.95
2018-03-31T15:58:07.805Z,97123.47
2018-03-31T16:00:36.156Z,97117.20
2018-03-31T16:03:05.378Z,97109.89
2018-03-31T16:05:35.787Z,97122.34
2018-03-31T16:08:05.608Z,97100.97
2018-03-31T16:10:34.588Z,97111.69
2018-03-31T16:13:05.789Z,97109.94
2018-03-31T16:15:35.679Z,97106.50
2018-03-31T16:18:05.874Z,97129.67
2018-03-31T16:20:35.300Z,97121.31
2018-03-31T16:23:04.424Z,97106.87
2018-03-31T16:25:34.164Z,97095.92
2018-03-31T16:28:03.346Z,97096.55
2018-03-31T16:30:33.025Z,97100.15
2018-03-31T16:33:04.131Z,97090.80
2018-03-31T16:35:33.367Z,97112.30
2018-03-31T16:38:03.509Z,97098.91
2018-03-31T16:40:33.497Z,97093.44
2018-03-31T16:43:03.747Z,97093.70
2018-03-31T16:45:33.523Z,97110.98
2018-03-31T16:48:03.215Z,97097.53
2018-03-31T16:50:33.484Z,97111.20
2018-03-31T16:53:02.376Z,97113.14
2018-03-31T16:55:31.428Z,97121.77
2018-03-31T16:58:01.498Z,97133.91
2018-03-31T17:00:33.735Z,97142.70
2018-03-31T17:03:03.295Z,97138.38
2018-03-31T17:05:33.310Z,97139.98
2018-03-31T17:08:02.997Z,97146.22
2018-03-31T17:10:31.934Z,97144.19
2018-03-31T17:13:01.053Z,97145.07
2018-03-31T17:15:31.597Z,97143.92
2018-03-31T17:18:02.549Z,97139.53
2018-03-31T17:20:30.855Z,97141.72
2018-03-31T17:22:59.542Z,97145.22
2018-03-31T17:25:28.363Z,97135.60
2018-03-31T17:27:57.473Z,97134.71
2018-03-31T17:30:29.285Z,97133.05
2018-03-31T17:32:58.681Z,97131.34
2018-03-31T17:35:28.832Z,97138.23
2018-03-31T17:37:58.308Z,97134.16
2018-03-31T17:40:27.817Z,97136.45
2018-03-31T17:42:57.518Z,97140.48
2018-03-31T17:45:26.332Z,97144.30
2018-03-31T17:47:55.612Z,97143.03
2018-03-31T17:50:25.605Z,97144.44
2018-03-31T17:52:55.291Z,97148.45
2018-03-31T17:55:25.378Z,97150.95
2018-03-31T17:57:55.470Z,97150.55
2018-03-31T18:00:24.918Z,97147.68
2018-03-31T18:02:53.916Z,97158.94
2018-03-31T18:05:24.604Z,97152.73
2018-03-31T18:07:54.624Z,97159.72
2018-03-31T18:10:27.084Z,97174.42
2018-03-31T18:12:56.805Z,97178.63
2018-03-31T18:15:26.673Z,97180.47
2018-03-31T18:17:57.756Z,97184.58
2018-03-31T18:20:27.201Z,97193.92
2018-03-31T18:22:57.027Z,97199.07
2018-03-31T18:25:25.736Z,97206.13
2018-03-31T18:27:55.739Z,97202.30
2018-03-31T18:30:24.936Z,97206.67
2018-03-31T18:32:54.395Z,97206.08
2018-03-31T18:35:24.558Z,97209.59
2018-03-31T18:37:53.981Z,97219.80
2018-03-31T18:40:26.143Z,97228.50
2018-03-31T18:42:56.305Z,97235.07
2018-03-31T18:45:25.926Z,97239.12
2018-03-31T18:47:56.417Z,97247.06
2018-03-31T18:50:26.610Z,97257.53
2018-03-31T18:52:58.228Z,97263.99
2018-03-31T18:55:27.204Z,97265.11
2018-03-31T18:57:56.723Z,97260.58
2018-03-31T19:00:26.364Z,97267.88
2018-03-31T19:02:57.927Z,97263.16
2018-03-31T19:05:27.977Z,97269.05
2018-03-31T19:07:59.030Z,97270.21
2018-03-31T19:10:28.246Z,97272.78
2018-03-31T19:12:58.116Z,97281.78
2018-03-31T19:15:28.055Z,97296.63
2018-03-31T19:17:57.124Z,97299.28
2018-03-31T19:20:26.750Z,97298.86
2018-03-31T19:22:56.553Z,97303.09
2018-03-31T19:25:32.479Z,97307.30
2018-03-31T19:28:01.522Z,97309.43
2018-03-31T19:30:35.705Z,97314.80
2018-03-31T19:33:05.894Z,97308.91
2018-03-31T19:35:41.618Z,97312.43
2018-03-31T19:38:09.977Z,97306.25
2018-03-31T19:40:38.965Z,97309.69
2018-03-31T19:43:09.821Z,97309.41
2018-03-31T19:45:39.308Z,97308.02
2018-03-31T19:48:09.103Z,97307.41
2018-03-31T19:50:38.892Z,97306.39
2018-03-31T19:53:07.730Z,97302.68
2018-03-31T19:55:37.033Z,97303.18
2018-03-31T19:58:06.370Z,97306.67
2018-03-31T20:00:37.354Z,97302.99
2018-03-31T20:03:08.601Z,97307.55
2018-03-31T20:05:38.828Z,97308.66
2018-03-31T20:08:09.497Z,97301.88
2018-03-31T20:10:38.866Z,97321.31
2018-03-31T20:13:09.309Z,97336.64
2018-03-31T20:15:37.752Z,97329.25
2018-03-31T20:18:05.933Z,97330.61
2018-03-31T20:20:34.971Z,97333.27
2018-03-31T20:23:09.496Z,97337.73
2018-03-31T20:25:37.979Z,97339.83
2018-03-31T20:28:06.881Z,97324.22
2018-03-31T20:30:35.619Z,97328.78
2018-03-31T20:33:05.161Z,97334.52
2018-03-31T20:35:36.008Z,97333.76
2018-03-31T20:38:11.206Z,97336.66
2018-03-31T20:40:43.225Z,97334.20
2018-03-31T20:43:13.516Z,97330.97
2018-03-31T20:45:43.655Z,97317.87
2018-03-31T20:48:13.249Z,97319.77
2018-03-31T20:50:43.826Z,97313.50
2018-03-31T20:53:15.792Z,97316.26
2018-03-31T20:55:50.575Z,97314.96
2018-03-31T20:58:20.788Z,97324.63
2018-03-31T21:00:52.208Z,97331.77
2018-03-31T21:03:22.441Z,97323.84
2018-03-31T21:05:52.986Z,97335.37
2018-03-31T21:08:24.296Z,97332.17
2018-03-31T21:10:54.456Z,97331.29
2018-03-31T21:13:24.632Z,97344.61
2018-03-31T21:15:55.735Z,97341.30
2018-03-31T21:18:25.488Z,97336.61
2018-03-31T21:20:55.885Z,97333.89
2018-03-31T21:23:25.535Z,97330.98
2018-03-31T21:25:54.719Z,97333.06
2018-03-31T21:28:26.197Z,97336.52
2018-03-31T21:30:56.025Z,97348.24
2018-03-31T21:33:25.584Z,97348.55
2018-03-31T21:35:54.956Z,97352.97
2018-03-31T21:38:25.459Z,97351.36
2018-03-31T21:40:53.985Z,97347.75
2018-03-31T21:43:23.505Z,97347.14
2018-03-31T21:45:51.982Z,97347.85
2018-03-31T21:48:20.200Z,97346.83
2018-03-31T21:50:48.525Z,97348.98
2018-03-31T21:53:18.304Z,97346.02
2018-03-31T21:55:46.267Z,97342.09
2018-03-31T21:58:14.848Z,97343.35
2018-03-31T22:00:43.220Z,97345.67
2018-03-31T22:03:12.952Z,97334.25
2018-03-31T22:05:44.071Z,97338.25
2018-03-31T22:08:12.625Z,97332.86
2018-03-31T22:10:41.146Z,97336.30
2018-03-31T22:13:14.593Z,97334.08
2018-03-31T22:15:49.059Z,97347.87
2018-03-31T22:18:17.165Z,97343.73
2018-03-31T22:20:45.065Z,97334.08
2018-03-31T22:23:13.464Z,97332.81
2018-03-31T22:25:41.710Z,97338.85
2018-03-31T22:28:09.552Z,97343.55
2018-03-31T22:30:39.598Z,97332.77
2018-03-31T22:33:08.248Z,97333.42
2018-03-31T22:35:36.688Z,97341.50
2018-03-31T22:38:04.947Z,97340.34
2018-03-31T22:40:32.844Z,97344.69
2018-03-31T22:43:01.135Z,97331.83
2018-03-31T22:45:29.035Z,97335.49
2018-03-31T22:47:57.247Z,97336.56
2018-03-31T22:50:25.258Z,97337.94
2018-03-31T22:52:54.358Z,97353.34
2018-03-31T22:55:22.162Z,97351.41
2018-03-31T22:57:50.684Z,97354.68
2018-03-31T23:00:19.069Z,97358.31
2018-03-31T23:02:46.968Z,97355.43
2018-03-31T23:05:14.865Z,97359.66
2018-03-31T23:07:43.009Z,97362.73
2018-03-31T23:10:11.139Z,97363.51
2018-03-31T23:12:40.052Z,97378.81
2018-03-31T23:15:08.437Z,97383.76
2018-03-31T23:17:36.790Z,97389.41
2018-03-31T23:20:05.353Z,97393.86
2018-03-31T23:22:33.262Z,97402.81
2018-03-31T23:25:01.210Z,97404.30
2018-03-31T23:27:30.156Z,97417.48
2018-03-31T23:29:57.948Z,97426.87
2018-03-31T23:32:26.104Z,97429.88
2018-03-31T23:34:54.305Z,97430.09
2018-03-31T23:37:23.018Z,97426.32
2018-03-31T23:39:50.886Z,97435.91
2018-03-31T23:42:19.261Z,97435.93
2018-03-31T23:44:47.849Z,97441.48
2018-03-31T23:47:15.769Z,97441.05
2018-03-31T23:49:43.639Z,97440.87
2018-03-31T23:52:11.847Z,97440.53
2018-03-31T23:54:40.910Z,97443.20
2018-03-31T23:57:09.716Z,97440.83
2018-03-31T23:59:38.637Z,97445.63
